Time;durP1;ratioP1;P1;durP2;ratioP2;P2;SDS_P1;SDS_P2;PMS_P1;PMS_P2;Temp;Humidity;BMP_temperature;BMP_pressure;BME280_temperature;BME280_humidity;BME280_pressure;Samples;Min_cycle;Max_cycle;Signal;HPM_P1;HPM_P2
2024/01/07 09:10:10;;;;;;;1.40;1.10;;;;;;;6.45;40.34;90980.94;5067359;27;20763;-74
2024/01/07 09:12:37;;;;;;;0.95;0.95;;;;;;;6.71;41.87;90979.53;5028809;28;20033;-75
2024/01/07 09:15:04;;;;;;;1.33;1.00;;;;;;;6.97;39.38;90990.06;5033125;28;20036;-74
2024/01/07 09:17:31;;;;;;;1.20;1.10;;;;;;;7.16;38.88;90997.63;5039352;28;20541;-74
2024/01/07 09:19:56;;;;;;;0.90;0.90;;;;;;;7.25;37.35;90991.41;5040816;28;20060;-74
2024/01/07 09:22:22;;;;;;;1.27;1.17;;;;;;;7.20;38.22;90988.16;5036703;28;20152;-74
2024/01/07 09:24:49;;;;;;;1.33;1.10;;;;;;;7.15;38.35;90991.66;5044249;28;20072;-74
2024/01/07 09:27:15;;;;;;;1.17;1.08;;;;;;;7.12;38.18;90997.47;5021622;28;20708;-76
2024/01/07 09:29:41;;;;;;;1.30;1.20;;;;;;;7.14;38.25;91000.56;5041757;28;20032;-77
2024/01/07 09:32:07;;;;;;;0.90;0.90;;;;;;;7.08;37.73;90993.94;5035951;28;20041;-76
2024/01/07 09:34:33;;;;;;;0.80;0.80;;;;;;;7.08;38.05;90999.16;5042160;28;20033;-75
2024/01/07 09:36:59;;;;;;;1.10;1.00;;;;;;;7.14;38.46;91010.16;5022469;28;20099;-76
2024/01/07 09:39:25;;;;;;;1.40;1.30;;;;;;;7.18;38.14;90991.06;5035777;28;20029;-76
2024/01/07 09:41:51;;;;;;;1.20;1.10;;;;;;;7.12;37.35;91007.13;5036259;28;20084;-76
2024/01/07 09:44:18;;;;;;;1.02;1.00;;;;;;;7.16;37.91;90995.03;5044579;28;20037;-75
2024/01/07 09:46:49;;;;;;;0.82;0.82;;;;;;;7.15;36.97;91002.06;5040194;28;20276;-76
2024/01/07 09:49:15;;;;;;;1.00;1.00;;;;;;;7.20;37.20;91001.94;5039413;28;20032;-75
2024/01/07 09:51:44;;;;;;;0.90;0.90;;;;;;;7.09;36.24;91000.66;5038161;28;20405;-76
2024/01/07 09:54:19;;;;;;;1.20;1.10;;;;;;;7.08;37.41;91018.13;5033646;28;20051;-75
2024/01/07 09:56:55;;;;;;;1.20;1.10;;;;;;;7.01;37.08;91011.81;5038279;28;20041;-75
2024/01/07 09:59:21;;;;;;;3.55;2.10;;;;;;;7.04;36.76;91006.78;5039962;28;20080;-75
2024/01/07 10:01:47;;;;;;;6.38;2.63;;;;;;;7.17;37.02;91010.34;5037118;28;20029;-75
2024/01/07 10:04:13;;;;;;;1.10;1.10;;;;;;;7.16;36.52;90998.41;5040625;28;20029;-75
2024/01/07 10:06:39;;;;;;;2.45;1.70;;;;;;;7.18;36.94;91005.91;5042999;28;20069;-75
2024/01/07 10:09:06;;;;;;;3.35;1.60;;;;;;;7.10;37.49;91017.81;5041409;28;20073;-75
2024/01/07 10:11:33;;;;;;;1.00;1.00;;;;;;;7.14;37.12;91005.75;5043270;28;20504;-75
2024/01/07 10:13:58;;;;;;;0.90;0.90;;;;;;;7.19;36.02;91023.06;5043025;28;20043;-75
2024/01/07 10:16:24;;;;;;;1.00;1.00;;;;;;;7.09;36.86;90998.06;5037195;28;20411;-75
2024/01/07 10:18:50;;;;;;;1.00;1.00;;;;;;;7.25;36.34;91012.22;5043442;28;20482;-74
2024/01/07 10:21:15;;;;;;;1.15;1.05;;;;;;;7.20;35.44;90998.56;5031084;28;20099;-75
2024/01/07 10:23:41;;;;;;;1.20;1.10;;;;;;;7.12;37.19;91013.09;5026813;28;20049;-75
2024/01/07 10:26:06;;;;;;;1.33;1.20;;;;;;;7.12;37.80;91007.13;5028911;28;20037;-76
2024/01/07 10:28:32;;;;;;;1.65;1.17;;;;;;;7.07;37.04;91015.84;5021446;28;20029;-76
2024/01/07 10:30:58;;;;;;;1.38;1.20;;;;;;;7.25;37.65;91007.03;5023322;28;20099;-76
2024/01/07 10:33:23;;;;;;;1.00;1.00;;;;;;;7.06;35.62;91004.63;5020667;28;20039;-75
2024/01/07 10:36:00;;;;;;;1.20;1.10;;;;;;;7.10;36.75;91010.03;5023831;28;20029;-77
2024/01/07 10:38:26;;;;;;;1.60;1.23;;;;;;;7.17;35.55;91020.00;5021829;28;20489;-76
2024/01/07 10:40:55;;;;;;;1.00;1.00;;;;;;;7.05;35.34;90990.09;5026296;28;20122;-75
2024/01/07 10:43:20;;;;;;;1.42;1.30;;;;;;;7.05;36.98;91013.53;5029306;28;20504;-74
2024/01/07 10:45:50;;;;;;;1.35;1.20;;;;;;;7.08;36.29;90999.91;5025751;28;20114;-74
2024/01/07 10:48:20;;;;;;;1.30;1.20;;;;;;;7.13;35.89;90993.78;5021361;28;20026;-75
2024/01/07 10:50:51;;;;;;;1.40;1.20;;;;;;;7.16;36.63;91006.22;5017223;28;20044;-77
2024/01/07 10:53:21;;;;;;;1.08;1.08;;;;;;;7.12;35.87;91002.69;5019259;28;20125;-78
2024/01/07 10:55:59;;;;;;;1.70;1.38;;;;;;;7.16;36.32;91005.44;5013867;28;20042;-75
2024/01/07 10:58:26;;;;;;;2.72;1.83;;;;;;;7.18;36.67;90996.28;5016482;28;20511;-75
2024/01/07 11:00:53;;;;;;;1.85;1.20;;;;;;;7.19;36.57;91008.22;5020678;28;20029;-75
2024/01/07 11:03:38;;;;;;;2.28;1.58;;;;;;;7.17;36.76;90999.19;5024474;28;20603;-76
2024/01/07 11:06:21;;;;;;;1.30;1.20;;;;;;;7.20;36.32;91001.94;5019118;28;20060;-77
2024/01/07 11:09:10;;;;;;;1.30;1.10;;;;;;;7.22;36.36;90992.00;5020018;28;20049;-75
2024/01/07 11:11:42;;;;;;;3.17;1.80;;;;;;;7.21;37.30;90995.66;5022599;28;20286;-77
2024/01/07 11:14:51;;;;;;;1.00;1.00;;;;;;;7.20;36.82;90999.31;5014454;28;20041;-74
2024/01/07 11:17:37;;;;;;;1.00;1.00;;;;;;;7.28;36.01;90998.59;5026585;28;20501;-76
2024/01/07 11:20:26;;;;;;;1.08;1.08;;;;;;;7.38;36.17;90991.59;5023756;28;20048;-76
2024/01/07 11:22:52;;;;;;;1.05;1.00;;;;;;;7.31;35.99;90989.41;5019804;28;20049;-76
2024/01/07 11:25:34;;;;;;;1.30;1.20;;;;;;;7.33;36.35;90999.53;5028999;28;20033;-74
2024/01/07 11:28:03;;;;;;;2.13;1.40;;;;;;;7.47;35.71;90992.38;5024043;28;20026;-77
2024/01/07 11:30:29;;;;;;;4.05;2.10;;;;;;;7.32;36.10;91001.38;5022799;28;20025;-77
2024/01/07 11:33:01;;;;;;;1.20;1.10;;;;;;;7.25;35.53;90991.41;5025898;28;20044;-77
2024/01/07 11:35:59;;;;;;;1.13;1.03;;;;;;;7.27;36.67;90994.47;5014869;28;20592;-78
2024/01/07 11:38:25;;;;;;;1.38;1.17;;;;;;;7.33;36.33;90987.28;5017189;28;20276;-77
2024/01/07 11:40:52;;;;;;;1.30;1.20;;;;;;;7.34;37.21;90973.22;5021399;28;20034;-75
2024/01/07 11:43:18;;;;;;;0.90;0.90;;;;;;;7.32;35.91;90984.97;5019884;28;20052;-76
2024/01/07 11:45:44;;;;;;;1.13;1.00;;;;;;;7.44;35.59;90982.56;5021421;28;20047;-76
2024/01/07 11:48:10;;;;;;;5.38;2.90;;;;;;;7.37;36.73;90983.00;5015148;28;20018;-77
2024/01/07 11:50:35;;;;;;;1.20;1.00;;;;;;;7.32;36.82;90988.38;5017559;28;20037;-75
2024/01/07 11:53:02;;;;;;;1.20;1.10;;;;;;;7.32;37.08;90995.38;5022101;28;20038;-75
2024/01/07 11:55:29;;;;;;;1.10;1.00;;;;;;;7.48;36.28;90993.91;5015369;28;20052;-76
2024/01/07 11:57:57;;;;;;;1.30;1.20;;;;;;;7.45;35.91;90978.88;5016477;28;20560;-77
2024/01/07 12:00:23;;;;;;;1.13;1.00;;;;;;;7.45;35.98;90968.47;5020396;28;20450;-77
2024/01/07 12:02:49;;;;;;;1.67;1.17;;;;;;;7.47;36.68;90987.16;5014559;28;20144;-77
2024/01/07 12:05:15;;;;;;;1.00;1.00;;;;;;;7.41;37.72;90985.78;5020606;28;20676;-80
2024/01/07 12:07:42;;;;;;;5.20;3.22;;;;;;;7.42;35.68;90964.63;5013890;28;20056;-77
2024/01/07 12:10:11;;;;;;;1.00;1.00;;;;;;;7.38;35.91;90970.75;5029005;28;20048;-76
2024/01/07 12:12:41;;;;;;;2.08;1.50;;;;;;;7.55;36.01;90978.63;5022810;28;20570;-78
2024/01/07 12:15:08;;;;;;;1.25;1.15;;;;;;;7.49;37.59;90982.41;5025128;28;20046;-76
2024/01/07 12:17:34;;;;;;;1.10;1.00;;;;;;;7.49;36.56;90974.59;5022163;28;20056;-78
2024/01/07 12:20:04;;;;;;;2.42;1.20;;;;;;;7.56;36.10;90980.13;5008839;28;20030;-78
2024/01/07 12:22:31;;;;;;;0.90;0.90;;;;;;;7.48;36.56;90980.91;5021597;28;20034;-75
2024/01/07 12:25:02;;;;;;;1.23;1.13;;;;;;;7.59;36.96;90973.53;5022625;28;20463;-77
2024/01/07 12:27:29;;;;;;;1.23;1.10;;;;;;;7.61;36.75;90974.81;5019011;28;20037;-77
2024/01/07 12:29:58;;;;;;;1.00;1.00;;;;;;;7.63;38.08;90984.91;5002724;28;20034;-77
2024/01/07 12:32:30;;;;;;;0.90;0.90;;;;;;;7.60;37.66;90978.47;5028968;28;20852;-77
2024/01/07 12:34:59;;;;;;;1.10;1.00;;;;;;;7.66;37.18;90987.66;5004529;28;20071;-77
2024/01/07 12:37:28;;;;;;;1.00;1.00;;;;;;;7.63;35.10;90969.25;5001606;28;20515;-76
2024/01/07 12:39:54;;;;;;;0.90;0.90;;;;;;;7.69;36.55;90979.25;5020904;28;20039;-77
2024/01/07 12:42:21;;;;;;;1.20;1.10;;;;;;;7.68;37.44;90972.50;5020033;28;20042;-77
2024/01/07 12:44:50;;;;;;;1.15;1.05;;;;;;;7.82;36.98;90967.16;5023712;28;20036;-75
2024/01/07 12:47:16;;;;;;;2.92;1.80;;;;;;;7.74;37.08;90978.31;5019926;28;20025;-77
2024/01/07 12:49:42;;;;;;;1.13;1.10;;;;;;;7.64;37.47;90968.22;5015184;28;20056;-77
2024/01/07 12:52:09;;;;;;;2.83;1.60;;;;;;;7.76;36.73;90965.75;5018840;28;20041;-77
2024/01/07 12:54:34;;;;;;;0.80;0.80;;;;;;;7.79;37.19;90975.59;5015704;28;20034;-76
2024/01/07 12:57:00;;;;;;;1.20;1.10;;;;;;;7.77;36.17;90964.72;5023742;28;20497;-77
2024/01/07 12:59:26;;;;;;;1.10;1.00;;;;;;;7.68;36.81;90988.13;5025749;28;20651;-76
2024/01/07 13:01:52;;;;;;;0.90;0.90;;;;;;;7.64;36.63;90982.00;5019295;28;20511;-77
2024/01/07 13:04:19;;;;;;;1.00;1.00;;;;;;;7.62;37.06;90984.13;5025299;28;20044;-77
2024/01/07 13:06:45;;;;;;;1.20;1.10;;;;;;;7.63;36.78;90964.84;5017658;28;20041;-76
2024/01/07 13:09:11;;;;;;;1.10;1.00;;;;;;;7.59;37.42;90984.75;5017636;28;20049;-76
2024/01/07 13:11:37;;;;;;;3.38;1.70;;;;;;;7.64;36.75;90982.00;5025461;28;20054;-76
2024/01/07 13:14:03;;;;;;;3.05;1.65;;;;;;;7.65;37.54;90987.97;5022588;28;20033;-77
2024/01/07 13:16:30;;;;;;;1.23;1.13;;;;;;;7.74;37.00;90980.16;5018155;28;20534;-76
2024/01/07 13:18:57;;;;;;;1.20;1.10;;;;;;;7.69;36.43;90989.66;5023696;28;20819;-76
2024/01/07 13:21:22;;;;;;;3.13;1.40;;;;;;;7.59;36.99;90969.13;5002567;28;20516;-76
2024/01/07 13:23:48;;;;;;;0.90;0.90;;;;;;;7.57;37.12;90981.69;5019647;28;20033;-76
2024/01/07 13:26:15;;;;;;;1.00;1.00;;;;;;;7.57;36.64;90984.28;5020586;28;20025;-76
2024/01/07 13:28:41;;;;;;;1.25;0.90;;;;;;;7.50;35.80;90986.56;5022275;28;20037;-77
2024/01/07 13:31:07;;;;;;;0.90;0.90;;;;;;;7.45;37.38;90984.88;5025452;28;20084;-77
2024/01/07 13:33:33;;;;;;;0.98;0.98;;;;;;;7.41;36.76;90991.00;5022608;28;20018;-77
2024/01/07 13:35:59;;;;;;;1.42;1.20;;;;;;;7.47;37.24;90995.72;5018174;28;20041;-76
2024/01/07 13:38:24;;;;;;;0.90;0.90;;;;;;;7.39;36.75;90986.09;5014285;28;20399;-77
2024/01/07 13:40:50;;;;;;;1.08;1.08;;;;;;;7.29;37.69;90987.13;5026772;28;20037;-76
2024/01/07 13:43:16;;;;;;;2.90;1.80;;;;;;;7.40;36.20;90992.06;5023247;28;20120;-76
2024/01/07 13:45:41;;;;;;;1.58;1.30;;;;;;;7.26;37.34;91005.94;5016047;28;20102;-77
2024/01/07 13:48:07;;;;;;;1.23;1.05;;;;;;;7.30;36.89;91004.28;5027251;28;20048;-80
2024/01/07 13:50:33;;;;;;;3.90;2.00;;;;;;;7.33;38.05;90989.13;5023693;28;20088;-79
2024/01/07 13:52:59;;;;;;;1.30;1.20;;;;;;;7.23;37.69;91003.94;5031438;28;20077;-78
2024/01/07 13:55:25;;;;;;;1.13;1.02;;;;;;;7.25;37.40;90990.63;5022304;28;20038;-79
2024/01/07 13:57:50;;;;;;;1.45;1.10;;;;;;;7.30;36.75;91004.28;5030457;28;20045;-79
2024/01/07 14:00:18;;;;;;;2.53;1.58;;;;;;;7.17;36.86;90999.94;5033673;28;20405;-79
2024/01/07 14:02:47;;;;;;;1.58;1.33;;;;;;;7.12;37.85;91000.09;5035895;28;20051;-79
2024/01/07 14:05:12;;;;;;;1.85;1.40;;;;;;;7.09;38.87;91019.66;5027557;28;20037;-79
2024/01/07 14:07:38;;;;;;;2.22;1.20;;;;;;;7.09;38.23;91016.28;5029334;28;20048;-78
2024/01/07 14:10:05;;;;;;;1.83;1.40;;;;;;;7.14;37.93;91026.56;5032836;28;20744;-78
2024/01/07 14:12:32;;;;;;;2.47;1.50;;;;;;;7.11;38.17;91036.81;5028594;28;20121;-78
2024/01/07 14:14:58;;;;;;;2.55;1.70;;;;;;;7.07;38.59;91036.66;5030591;28;20072;-78
2024/01/07 14:17:25;;;;;;;3.63;1.75;;;;;;;7.11;37.56;91042.78;5032617;28;20508;-77
2024/01/07 14:19:52;;;;;;;1.20;1.10;;;;;;;7.05;38.74;91044.75;5035046;28;20029;-77
2024/01/07 14:22:20;;;;;;;1.20;1.10;;;;;;;7.02;38.76;91040.13;5028834;28;20057;-78
2024/01/07 14:24:46;;;;;;;1.85;1.40;;;;;;;6.96;39.12;91061.34;5030591;28;20045;-78
2024/01/07 14:27:12;;;;;;;0.95;0.95;;;;;;;6.87;39.08;91049.09;5028471;28;20033;-77
2024/01/07 14:29:37;;;;;;;2.03;1.40;;;;;;;6.90;40.15;91052.94;5029131;28;20569;-77
2024/01/07 14:32:06;;;;;;;1.90;1.35;;;;;;;6.83;40.26;91061.16;5029987;28;20029;-78
2024/01/07 14:34:32;;;;;;;2.78;1.30;;;;;;;6.92;39.96;91055.25;5033946;28;20029;-78
2024/01/07 14:36:57;;;;;;;4.30;2.42;;;;;;;6.87;40.21;91063.94;5026791;28;20457;-80
2024/01/07 14:39:23;;;;;;;3.80;1.55;;;;;;;6.81;38.71;91059.91;5025184;28;20061;-79
2024/01/07 14:41:48;;;;;;;2.15;1.40;;;;;;;6.87;40.19;91069.91;5027375;28;20030;-79
2024/01/07 14:44:14;;;;;;;1.13;1.10;;;;;;;6.89;38.33;91067.00;5027652;28;20064;-80
2024/01/07 14:46:40;;;;;;;1.27;1.17;;;;;;;6.81;40.04;91068.47;5023254;28;20038;-77
2024/01/07 14:49:06;;;;;;;1.20;1.10;;;;;;;6.81;39.73;91075.53;5028060;28;20408;-78
2024/01/07 14:51:32;;;;;;;1.95;1.40;;;;;;;6.76;39.47;91079.00;5032725;28;20037;-79
2024/01/07 14:53:58;;;;;;;1.55;1.10;;;;;;;6.70;40.19;91077.59;5031334;28;20042;-79
2024/01/07 14:56:23;;;;;;;2.30;1.40;;;;;;;6.76;40.13;91078.25;5032895;28;20390;-78
2024/01/07 14:58:49;;;;;;;2.22;1.48;;;;;;;6.64;40.11;91076.16;5033320;28;20037;-79
2024/01/07 15:01:14;;;;;;;1.00;1.00;;;;;;;6.62;40.19;91073.09;5033205;28;20606;-79
2024/01/07 15:03:41;;;;;;;1.25;1.10;;;;;;;6.57;40.61;91083.63;5031989;28;20049;-78
2024/01/07 15:06:08;;;;;;;4.10;1.80;;;;;;;6.62;39.86;91088.69;5034569;28;20052;-78
2024/01/07 15:08:33;;;;;;;1.40;1.20;;;;;;;6.54;40.96;91089.41;5034548;28;20038;-78
2024/01/07 15:10:59;;;;;;;1.40;1.30;;;;;;;6.42;40.87;91085.50;5033405;28;20112;-78
2024/01/07 15:13:26;;;;;;;1.40;1.00;;;;;;;6.41;41.04;91094.34;5031211;28;20068;-78
2024/01/07 15:15:52;;;;;;;1.35;1.15;;;;;;;6.42;40.75;91103.69;5030756;28;20397;-79
2024/01/07 15:18:17;;;;;;;1.52;1.20;;;;;;;6.59;40.20;91091.88;5028506;28;20037;-78
2024/01/07 15:20:43;;;;;;;3.53;1.42;;;;;;;6.45;40.99;91094.53;5016508;28;20045;-77
2024/01/07 15:23:09;;;;;;;1.60;1.27;;;;;;;6.39;39.98;91101.66;5033387;28;20037;-77
2024/01/07 15:25:35;;;;;;;1.30;1.13;;;;;;;6.37;41.20;91098.63;5037377;28;20550;-78
2024/01/07 15:28:00;;;;;;;1.27;1.13;;;;;;;6.40;41.47;91108.41;5034369;28;20041;-79
2024/01/07 15:30:26;;;;;;;1.52;1.20;;;;;;;6.32;41.19;91116.91;5033519;28;20036;-79
2024/01/07 15:32:51;;;;;;;1.20;1.10;;;;;;;6.41;41.71;91104.00;5035273;28;20049;-79
2024/01/07 15:35:17;;;;;;;1.27;1.17;;;;;;;6.34;43.54;91109.59;5035614;28;20199;-78
2024/01/07 15:37:43;;;;;;;0.93;0.93;;;;;;;6.16;42.61;91092.31;5027995;28;20038;-79
2024/01/07 15:40:09;;;;;;;1.08;1.00;;;;;;;6.24;43.22;91109.81;4995841;28;20034;-78
2024/01/07 15:42:34;;;;;;;1.38;1.13;;;;;;;6.21;43.49;91116.38;5023304;28;20064;-79
2024/01/07 15:45:00;;;;;;;2.80;1.60;;;;;;;6.15;43.74;91119.38;5019657;28;20045;-78
2024/01/07 15:47:27;;;;;;;2.38;1.40;;;;;;;6.16;42.86;91116.47;5020240;28;20569;-79
2024/01/07 15:49:53;;;;;;;1.80;1.30;;;;;;;6.12;43.44;91112.13;5030810;28;20092;-78
2024/01/07 15:52:18;;;;;;;1.30;1.20;;;;;;;6.05;44.02;91118.50;5024404;28;20045;-79
2024/01/07 15:54:44;;;;;;;1.55;1.20;;;;;;;5.96;44.34;91120.25;5021546;28;20429;-78
2024/01/07 15:57:09;;;;;;;1.83;1.40;;;;;;;5.89;44.92;91127.63;5035621;28;20041;-79
2024/01/07 15:59:35;;;;;;;2.92;1.83;;;;;;;5.96;44.64;91120.25;5009518;28;20030;-78
2024/01/07 16:02:00;;;;;;;3.45;1.70;;;;;;;5.90;45.07;91134.38;5007931;28;20132;-79
2024/01/07 16:04:27;;;;;;;1.13;1.00;;;;;;;5.83;44.67;91136.56;5025117;28;20389;-78
2024/01/07 16:06:52;;;;;;;1.25;1.10;;;;;;;5.82;45.34;91135.03;5029837;28;20088;-78
2024/01/07 16:09:18;;;;;;;1.70;1.10;;;;;;;5.84;45.27;91138.88;5025860;28;20057;-78
2024/01/07 16:11:45;;;;;;;1.45;1.20;;;;;;;5.88;45.20;91141.69;5024104;28;20065;-78
2024/01/07 16:14:14;;;;;;;1.15;1.05;;;;;;;5.92;45.54;91140.06;5020718;28;20045;-77
2024/01/07 16:16:41;;;;;;;4.32;2.67;;;;;;;5.94;45.86;91148.34;5021846;28;20033;-79
2024/01/07 16:19:09;;;;;;;3.42;1.63;;;;;;;5.86;46.78;91145.63;5027639;28;20044;-79
2024/01/07 16:21:35;;;;;;;1.40;1.15;;;;;;;5.81;45.84;91139.47;5029101;28;20064;-79
2024/01/07 16:24:01;;;;;;;1.30;1.20;;;;;;;5.79;46.42;91140.84;5026553;28;20057;-77
2024/01/07 16:26:26;;;;;;;1.90;1.23;;;;;;;5.74;46.25;91146.09;5026501;28;20156;-79
2024/01/07 16:28:52;;;;;;;0.90;0.90;;;;;;;5.75;46.09;91151.00;5025807;28;20152;-79
2024/01/07 16:31:18;;;;;;;1.75;1.10;;;;;;;5.72;46.32;91150.81;5033348;28;20604;-80
2024/01/07 16:33:44;;;;;;;1.80;0.90;;;;;;;5.69;46.68;91157.34;5029293;28;20132;-79
2024/01/07 16:36:10;;;;;;;1.10;1.00;;;;;;;5.77;46.38;91150.72;5031236;28;20037;-78
2024/01/07 16:38:37;;;;;;;3.70;1.60;;;;;;;5.88;45.40;91159.88;5029270;28;20033;-77
2024/01/07 16:41:08;;;;;;;1.20;1.10;;;;;;;5.92;45.13;91154.84;5021514;28;20513;-78
2024/01/07 16:43:36;;;;;;;0.90;0.90;;;;;;;5.86;44.64;91156.78;5023523;28;20057;-78
2024/01/07 16:46:02;;;;;;;2.10;1.50;;;;;;;5.82;45.29;91171.41;5025808;28;20057;-77
2024/01/07 16:48:28;;;;;;;1.20;1.10;;;;;;;5.89;44.25;91156.19;5019039;28;20463;-77
2024/01/07 16:50:53;;;;;;;1.20;1.10;;;;;;;5.88;44.45;91165.06;5022540;28;20042;-76
2024/01/07 16:53:20;;;;;;;3.35;1.42;;;;;;;5.80;44.64;91163.88;5016069;28;20041;-77
2024/01/07 16:55:47;;;;;;;2.47;1.50;;;;;;;5.81;45.07;91164.69;5035375;28;20037;-79
2024/01/07 16:58:13;;;;;;;4.90;2.88;;;;;;;5.79;45.08;91175.34;5038209;28;20041;-78
2024/01/07 17:00:39;;;;;;;3.67;1.92;;;;;;;5.67;45.20;91185.44;5036523;28;20059;-77
2024/01/07 17:03:05;;;;;;;1.30;1.10;;;;;;;5.80;45.08;91182.06;5035297;28;20128;-78
2024/01/07 17:05:30;;;;;;;1.40;1.20;;;;;;;5.77;45.06;91184.50;5036476;28;20033;-78
2024/01/07 17:07:56;;;;;;;1.73;1.38;;;;;;;5.77;44.41;91180.06;5036803;28;20061;-78
2024/01/07 17:10:21;;;;;;;2.78;1.70;;;;;;;5.76;44.92;91188.13;5035561;28;20049;-77
2024/01/07 17:12:47;;;;;;;11.65;8.70;;;;;;;5.76;45.93;91198.50;5037452;28;20072;-78
2024/01/07 17:15:14;;;;;;;4.97;2.42;;;;;;;5.60;46.61;91188.41;5029859;28;20046;-79
2024/01/07 17:17:40;;;;;;;1.58;1.17;;;;;;;5.77;44.86;91189.69;5021799;28;20026;-78
2024/01/07 17:20:09;;;;;;;2.20;1.40;;;;;;;5.74;45.12;91200.63;5031983;28;20029;-78
2024/01/07 17:22:35;;;;;;;5.10;2.88;;;;;;;5.64;46.04;91201.59;5031366;28;20093;-77
2024/01/07 17:25:01;;;;;;;1.75;1.30;;;;;;;5.60;45.93;91196.19;5014615;28;20097;-77
2024/01/07 17:27:27;;;;;;;2.78;1.70;;;;;;;5.65;45.68;91195.31;5025793;28;20037;-79
2024/01/07 17:29:53;;;;;;;1.75;1.30;;;;;;;5.76;45.56;91203.72;5012769;28;20036;-77
2024/01/07 17:32:22;;;;;;;6.07;3.30;;;;;;;5.66;46.47;91206.50;5034231;28;20580;-78
2024/01/07 17:34:52;;;;;;;2.42;1.45;;;;;;;5.61;45.09;91192.53;5039313;28;20128;-78
2024/01/07 17:37:18;;;;;;;2.30;1.58;;;;;;;5.64;46.41;91215.34;5033210;28;20033;-78
2024/01/07 17:39:44;;;;;;;6.82;3.92;;;;;;;5.79;46.03;91206.50;5035022;28;20381;-78
2024/01/07 17:42:10;;;;;;;5.63;4.07;;;;;;;5.66;46.56;91219.47;5032119;28;20069;-77
2024/01/07 17:44:39;;;;;;;3.92;2.28;;;;;;;5.66;46.94;91222.84;5012730;28;20038;-76
2024/01/07 17:47:04;;;;;;;1.48;1.20;;;;;;;5.56;46.55;91216.00;5010140;28;20555;-75
2024/01/07 17:49:30;;;;;;;4.80;3.50;;;;;;;5.70;46.61;91228.25;5019056;28;20022;-77
2024/01/07 17:51:56;;;;;;;2.47;1.70;;;;;;;5.87;45.49;91219.88;5011952;28;20065;-76
2024/01/07 17:54:22;;;;;;;1.45;1.17;;;;;;;5.89;45.08;91223.72;5032694;28;20514;-77
2024/01/07 17:56:48;;;;;;;1.30;1.20;;;;;;;5.72;46.26;91226.09;5032077;28;20041;-76
2024/01/07 17:59:13;;;;;;;4.25;2.50;;;;;;;5.66;46.68;91229.88;5047879;28;20064;-77
2024/01/07 18:01:39;;;;;;;2.20;1.40;;;;;;;5.58;46.46;91224.28;5039752;28;20501;-77
2024/01/07 18:04:05;;;;;;;2.13;1.23;;;;;;;5.67;46.07;91216.59;5040031;28;20072;-77
2024/01/07 18:06:30;;;;;;;2.58;1.60;;;;;;;5.50;47.39;91237.91;5034780;28;20489;-77
2024/01/07 18:08:57;;;;;;;1.55;1.25;;;;;;;5.55;47.45;91232.63;5036408;28;20100;-77
2024/01/07 18:11:22;;;;;;;1.85;1.33;;;;;;;5.54;45.91;91233.69;5039871;28;20041;-77
2024/01/07 18:13:48;;;;;;;1.88;1.40;;;;;;;5.50;46.42;91237.91;5028516;28;20527;-77
2024/01/07 18:16:14;;;;;;;1.23;1.08;;;;;;;5.65;45.53;91236.88;5035539;28;20045;-77
2024/01/07 18:18:39;;;;;;;2.58;1.60;;;;;;;5.55;46.07;91239.66;5028230;28;20349;-77
2024/01/07 18:21:06;;;;;;;3.78;2.20;;;;;;;5.51;45.70;91234.25;5026279;28;20045;-78
2024/01/07 18:23:32;;;;;;;8.93;4.47;;;;;;;5.64;45.24;91240.53;5039979;28;20039;-77
2024/01/07 18:25:58;;;;;;;1.58;1.20;;;;;;;5.60;44.82;91249.94;5037537;28;20041;-78
2024/01/07 18:28:24;;;;;;;1.65;1.25;;;;;;;5.58;45.20;91247.66;5017875;28;20076;-78
2024/01/07 18:30:49;;;;;;;2.80;1.67;;;;;;;5.56;45.91;91241.97;5023682;28;20096;-78
2024/01/07 18:33:15;;;;;;;9.77;4.47;;;;;;;5.50;46.16;91253.47;5028639;28;20128;-77
2024/01/07 18:35:41;;;;;;;5.80;3.70;;;;;;;5.58;45.87;91255.44;5029034;28;20045;-77
2024/01/07 18:38:07;;;;;;;5.22;1.80;;;;;;;5.59;45.64;91251.78;5008870;28;20635;-76
2024/01/07 18:40:33;;;;;;;2.10;1.23;;;;;;;5.64;45.72;91259.47;5020544;28;20543;-77
2024/01/07 18:43:01;;;;;;;2.97;1.67;;;;;;;5.52;45.86;91259.16;5028790;28;20128;-77
2024/01/07 18:45:28;;;;;;;4.22;2.35;;;;;;;5.58;46.43;91260.63;5031481;28;20385;-78
2024/01/07 18:47:54;;;;;;;3.15;1.67;;;;;;;5.49;46.38;91264.91;5029119;28;20033;-77
2024/01/07 18:50:19;;;;;;;1.63;1.10;;;;;;;5.42;46.45;91270.47;5020698;28;20045;-78
2024/01/07 18:52:45;;;;;;;1.25;1.15;;;;;;;5.55;44.94;91274.16;5011521;28;20026;-78
2024/01/07 18:55:15;;;;;;;8.05;3.65;;;;;;;5.52;45.96;91277.34;5026295;28;20076;-77
2024/01/07 18:57:43;;;;;;;1.83;1.30;;;;;;;5.48;45.07;91265.22;5028264;28;20559;-78
2024/01/07 19:00:10;;;;;;;5.85;2.08;;;;;;;5.50;45.81;91269.06;5030967;28;20133;-77
2024/01/07 19:02:36;;;;;;;4.18;3.00;;;;;;;5.54;45.42;91275.22;5030925;28;20037;-77
2024/01/07 19:05:02;;;;;;;4.82;3.25;;;;;;;5.63;45.29;91277.94;5029159;28;20045;-79
2024/01/07 19:07:28;;;;;;;1.75;1.30;;;;;;;5.54;45.38;91285.59;5029679;28;20040;-77
2024/01/07 19:09:53;;;;;;;2.35;1.48;;;;;;;5.45;46.19;91282.13;5029761;28;20049;-79
2024/01/07 19:12:19;;;;;;;1.42;1.20;;;;;;;5.39;46.61;91289.19;5028588;28;20493;-79
2024/01/07 19:14:45;;;;;;;5.63;3.65;;;;;;;5.35;45.76;91293.41;5030760;28;20041;-79
2024/01/07 19:17:12;;;;;;;2.80;1.20;;;;;;;5.50;45.23;91279.44;5020283;28;20396;-77
2024/01/07 19:19:38;;;;;;;3.22;1.90;;;;;;;5.41;46.08;91283.75;5030255;28;20042;-79
2024/01/07 19:22:04;;;;;;;1.88;1.35;;;;;;;5.52;45.84;91292.91;5030280;28;20062;-78
2024/01/07 19:24:29;;;;;;;1.25;1.15;;;;;;;5.43;44.88;91289.41;5012449;28;20357;-79
2024/01/07 19:26:55;;;;;;;4.05;2.70;;;;;;;5.34;46.42;91288.53;5030034;28;20026;-78
2024/01/07 19:29:21;;;;;;;1.17;1.08;;;;;;;5.29;47.13;91299.75;5012132;28;20557;-79
2024/01/07 19:31:46;;;;;;;0.90;0.90;;;;;;;5.52;46.51;91299.94;5030607;28;20041;-78
2024/01/07 19:34:12;;;;;;;1.17;1.08;;;;;;;5.40;47.15;91306.34;5033400;28;20374;-79
2024/01/07 19:36:41;;;;;;;4.03;2.13;;;;;;;5.40;46.64;91306.34;5028548;28;20033;-78
2024/01/07 19:39:07;;;;;;;1.33;1.20;;;;;;;5.34;47.77;91301.50;5028597;28;20055;-79
2024/01/07 19:41:36;;;;;;;1.73;1.20;;;;;;;5.28;48.50;91305.97;5021646;28;20120;-79
2024/01/07 19:44:03;;;;;;;1.08;0.98;;;;;;;5.29;47.94;91306.75;5010894;28;20068;-77
2024/01/07 19:46:33;;;;;;;2.42;1.63;;;;;;;5.37;46.97;91306.88;5028273;28;20049;-79
2024/01/07 19:49:02;;;;;;;1.98;1.48;;;;;;;5.28;49.64;91313.00;5028339;28;20101;-77
2024/01/07 19:51:28;;;;;;;2.53;1.60;;;;;;;5.22;49.25;91313.06;5029746;28;20021;-79
2024/01/07 19:53:55;;;;;;;2.33;1.30;;;;;;;5.16;48.83;91311.59;5026932;28;20037;-77
2024/01/07 19:56:20;;;;;;;1.13;1.00;;;;;;;5.20;49.12;91328.16;5027803;28;20096;-79
2024/01/07 19:58:46;;;;;;;2.03;1.38;;;;;;;5.25;51.37;91326.53;5029490;28;20037;-79
2024/01/07 20:01:12;;;;;;;1.45;1.15;;;;;;;5.17;50.60;91333.13;5023906;28;20037;-77
2024/01/07 20:03:41;;;;;;;1.02;0.90;;;;;;;5.12;50.98;91330.59;5031610;28;20112;-77
2024/01/07 20:06:14;;;;;;;0.95;0.93;;;;;;;5.19;50.49;91333.63;5016574;28;20489;-77
2024/01/07 20:08:45;;;;;;;1.00;1.00;;;;;;;5.29;50.28;91345.66;5036929;28;20053;-76
2024/01/07 20:11:22;;;;;;;2.72;1.50;;;;;;;5.18;50.65;91340.63;5018636;28;20050;-77
2024/01/07 20:13:48;;;;;;;3.67;1.95;;;;;;;5.14;50.89;91346.66;5025482;28;20083;-77
2024/01/07 20:16:21;;;;;;;8.57;3.08;;;;;;;5.10;51.30;91348.25;5014099;28;20061;-76
2024/01/07 20:18:47;;;;;;;5.93;2.40;;;;;;;5.05;51.28;91343.16;5011655;28;20037;-76
2024/01/07 20:21:24;;;;;;;3.72;2.13;;;;;;;5.07;52.06;91351.44;5028788;28;20041;-77
2024/01/07 20:23:55;;;;;;;6.28;4.10;;;;;;;5.01;51.84;91348.13;5021942;28;20038;-76
2024/01/07 20:26:24;;;;;;;1.20;1.00;;;;;;;5.14;51.98;91357.81;5027590;28;20040;-77
2024/01/07 20:28:50;;;;;;;2.72;1.60;;;;;;;5.18;52.00;91356.19;5028944;28;20033;-77
2024/01/07 20:31:17;;;;;;;2.25;1.60;;;;;;;5.13;52.04;91351.06;5028891;28;20060;-77
2024/01/07 20:33:43;;;;;;;1.63;1.10;;;;;;;5.12;51.86;91354.72;5042719;28;20507;-77
2024/01/07 20:36:11;;;;;;;4.28;2.53;;;;;;;5.10;52.53;91358.63;5026401;28;20520;-77
2024/01/07 20:38:41;;;;;;;2.85;1.55;;;;;;;5.17;52.80;91370.22;5027931;28;20123;-77
2024/01/07 20:41:08;;;;;;;2.35;1.67;;;;;;;5.16;53.24;91371.28;5028151;28;20052;-77
2024/01/07 20:43:34;;;;;;;1.20;1.10;;;;;;;5.16;51.63;91375.69;5027010;28;20071;-77
2024/01/07 20:45:59;;;;;;;0.95;0.95;;;;;;;5.15;51.76;91369.72;4999253;28;20046;-77
2024/01/07 20:48:26;;;;;;;2.47;1.45;;;;;;;5.09;52.85;91376.03;5027020;28;20083;-77
2024/01/07 20:50:52;;;;;;;2.80;1.60;;;;;;;4.99;55.49;91365.78;5028022;28;20064;-76